createdAt,value
2017-05-14T00:00:15.622Z,955.02
2017-05-14T00:01:16.121Z,955.05
2017-05-14T00:02:14.934Z,955.14
2017-05-14T00:03:15.390Z,955.12
2017-05-14T00:04:15.485Z,955.12
2017-05-14T00:05:13.387Z,955.14
2017-05-14T00:06:11.518Z,955.16
2017-05-14T00:07:13.720Z,955.14
2017-05-14T00:08:16.905Z,955.25
2017-05-14T00:09:15.296Z,955.29
2017-05-14T00:10:17.151Z,955.29
2017-05-14T00:11:15.552Z,955.25
2017-05-14T00:12:14.355Z,955.34
2017-05-14T00:13:15.514Z,955.36
2017-05-14T00:14:16.732Z,955.36
2017-05-14T00:15:15.998Z,955.41
2017-05-14T00:16:14.082Z,955.44
2017-05-14T00:17:12.578Z,955.49
2017-05-14T00:18:11.943Z,955.51
2017-05-14T00:19:16.084Z,955.53
2017-05-14T00:20:15.330Z,955.54
2017-05-14T00:21:13.583Z,955.51
2017-05-14T00:22:09.558Z,955.53
2017-05-14T00:23:15.100Z,955.47
2017-05-14T00:24:14.947Z,955.52
2017-05-14T00:25:15.706Z,955.55
2017-05-14T00:26:14.908Z,955.56
2017-05-14T00:27:15.295Z,955.61
2017-05-14T00:28:15.326Z,955.67
2017-05-14T00:29:15.779Z,955.76
2017-05-14T00:30:15.577Z,955.82
2017-05-14T00:31:15.421Z,955.90
2017-05-14T00:32:15.902Z,955.91
2017-05-14T00:33:12.571Z,955.96
2017-05-14T00:34:15.268Z,955.94
2017-05-14T00:35:15.079Z,955.94
2017-05-14T00:36:15.521Z,955.91
2017-05-14T00:37:15.596Z,955.95
2017-05-14T00:38:15.624Z,955.96
2017-05-14T00:39:15.129Z,956.00
2017-05-14T00:40:15.826Z,956.03
2017-05-14T00:41:14.864Z,955.96
2017-05-14T00:42:15.584Z,956.05
2017-05-14T00:43:15.934Z,956.02
2017-05-14T00:44:15.029Z,956.05
2017-05-14T00:45:15.371Z,956.06
2017-05-14T00:46:15.998Z,956.08
2017-05-14T00:47:16.119Z,956.05
2017-05-14T00:48:15.514Z,955.91
2017-05-14T00:49:15.324Z,956.05
2017-05-14T00:50:15.428Z,956.07
2017-05-14T00:51:15.549Z,956.03
2017-05-14T00:52:16.653Z,956.05
2017-05-14T00:53:15.529Z,956.06
2017-05-14T00:54:15.917Z,956.02
2017-05-14T00:55:15.703Z,956.07
2017-05-14T00:56:14.864Z,956.07
2017-05-14T00:57:14.615Z,956.10
2017-05-14T00:58:15.278Z,956.12
2017-05-14T00:59:15.049Z,956.14
2017-05-14T01:00:15.592Z,956.14
2017-05-14T01:01:15.813Z,956.14
2017-05-14T01:02:15.134Z,956.17
2017-05-14T01:03:15.355Z,956.14
2017-05-14T01:04:15.563Z,956.15
2017-05-14T01:05:15.213Z,956.15
2017-05-14T01:06:15.577Z,956.19
2017-05-14T01:07:16.894Z,956.19
2017-05-14T01:08:15.206Z,956.20
2017-05-14T01:09:16.741Z,956.17
2017-05-14T01:10:15.545Z,956.18
2017-05-14T01:11:12.893Z,956.20
2017-05-14T01:12:15.164Z,956.19
2017-05-14T01:13:17.052Z,956.23
2017-05-14T01:14:16.427Z,956.23
2017-05-14T01:15:16.048Z,956.24
2017-05-14T01:16:15.198Z,956.26
2017-05-14T01:17:15.979Z,956.31
2017-05-14T01:18:15.012Z,956.28
2017-05-14T01:19:13.098Z,956.33
2017-05-14T01:20:15.297Z,956.41
2017-05-14T01:21:15.594Z,956.43
2017-05-14T01:22:15.991Z,956.43
2017-05-14T01:23:14.881Z,956.44
2017-05-14T01:24:16.070Z,956.49
2017-05-14T01:25:15.114Z,956.50
2017-05-14T01:26:15.152Z,956.58
2017-05-14T01:27:15.345Z,956.61
2017-05-14T01:28:12.078Z,956.63
2017-05-14T01:29:10.510Z,956.62
2017-05-14T01:30:15.472Z,956.64
2017-05-14T01:31:16.411Z,956.63
2017-05-14T01:32:15.995Z,956.66
2017-05-14T01:33:15.151Z,956.69
2017-05-14T01:34:11.751Z,956.67
2017-05-14T01:35:10.897Z,956.65
2017-05-14T01:36:15.484Z,956.69
2017-05-14T01:37:15.905Z,956.73
2017-05-14T01:38:16.475Z,956.69
2017-05-14T01:39:15.831Z,956.71
2017-05-14T01:40:15.865Z,956.70
2017-05-14T01:41:13.736Z,956.68
2017-05-14T01:42:15.165Z,956.71
2017-05-14T01:43:15.455Z,956.72
2017-05-14T01:44:12.426Z,956.72
2017-05-14T01:45:15.522Z,956.73
2017-05-14T01:46:15.644Z,956.72
2017-05-14T01:47:15.153Z,956.72
2017-05-14T01:48:15.169Z,956.71
2017-05-14T01:49:15.506Z,956.74
2017-05-14T01:50:15.736Z,956.76
2017-05-14T01:51:15.278Z,956.74
2017-05-14T01:52:15.198Z,956.71
2017-05-14T01:53:15.374Z,956.75
2017-05-14T01:54:15.584Z,956.75
2017-05-14T01:55:11.662Z,956.76
2017-05-14T01:56:15.506Z,956.77
2017-05-14T01:57:14.807Z,956.79
2017-05-14T01:58:15.305Z,956.78
2017-05-14T01:59:16.462Z,956.82
2017-05-14T02:00:15.358Z,956.82
2017-05-14T02:01:16.418Z,956.83
2017-05-14T02:02:15.574Z,956.85
2017-05-14T02:03:15.850Z,956.84
2017-05-14T02:04:15.025Z,956.82
2017-05-14T02:05:15.694Z,956.84
2017-05-14T02:06:15.917Z,956.87
2017-05-14T02:07:15.625Z,956.80
2017-05-14T02:08:17.032Z,956.82
2017-05-14T02:09:15.050Z,956.85
2017-05-14T02:10:16.084Z,956.83
2017-05-14T02:11:15.242Z,956.84
2017-05-14T02:12:15.495Z,956.84
2017-05-14T02:13:15.744Z,956.86
2017-05-14T02:14:15.090Z,956.85
2017-05-14T02:15:17.103Z,956.88
2017-05-14T02:16:16.791Z,956.89
2017-05-14T02:17:16.508Z,956.87
2017-05-14T02:18:15.668Z,956.91
2017-05-14T02:19:15.684Z,956.91
2017-05-14T02:20:15.236Z,956.92
2017-05-14T02:21:15.372Z,956.90
2017-05-14T02:22:15.957Z,956.89
2017-05-14T02:23:15.123Z,956.88
2017-05-14T02:24:15.831Z,956.91
2017-05-14T02:25:14.904Z,956.90
2017-05-14T02:26:15.127Z,956.89
2017-05-14T02:27:09.892Z,956.92
2017-05-14T02:28:15.736Z,956.89
2017-05-14T02:29:14.698Z,956.95
2017-05-14T02:30:14.815Z,956.95
2017-05-14T02:31:15.120Z,956.94
2017-05-14T02:32:15.791Z,956.96
2017-05-14T02:33:15.287Z,956.95
2017-05-14T02:34:15.289Z,956.93
2017-05-14T02:35:16.245Z,956.91
2017-05-14T02:36:15.477Z,956.94
2017-05-14T02:37:15.640Z,956.98
2017-05-14T02:38:15.421Z,956.91
2017-05-14T02:39:15.504Z,956.94
2017-05-14T02:40:16.905Z,956.93
2017-05-14T02:41:15.307Z,956.89
2017-05-14T02:42:15.430Z,956.92
2017-05-14T02:43:19.294Z,956.91
2017-05-14T02:44:13.537Z,956.92
2017-05-14T02:45:15.170Z,956.93
2017-05-14T02:46:15.242Z,956.94
2017-05-14T02:47:15.458Z,956.95
2017-05-14T02:48:15.587Z,956.97
2017-05-14T02:49:14.551Z,957.00
2017-05-14T02:50:14.784Z,957.01
2017-05-14T02:51:14.962Z,957.01
2017-05-14T02:52:11.857Z,957.06
2017-05-14T02:53:14.693Z,957.02
2017-05-14T02:54:14.802Z,957.12
2017-05-14T02:55:14.826Z,957.05
2017-05-14T02:56:15.493Z,957.14
2017-05-14T02:57:15.565Z,957.11
2017-05-14T02:58:15.564Z,957.13
2017-05-14T02:59:15.675Z,957.14
2017-05-14T03:00:15.458Z,957.14
2017-05-14T03:01:15.544Z,957.14
2017-05-14T03:02:16.799Z,957.15
2017-05-14T03:03:15.314Z,957.17
2017-05-14T03:04:15.464Z,957.18
2017-05-14T03:05:17.373Z,957.21
2017-05-14T03:06:16.780Z,957.19
2017-05-14T03:07:16.367Z,957.22
2017-05-14T03:08:14.095Z,957.19
2017-05-14T03:09:16.305Z,957.17
2017-05-14T03:10:15.400Z,957.23
2017-05-14T03:11:16.543Z,957.27
2017-05-14T03:12:15.561Z,957.27
2017-05-14T03:13:15.418Z,957.30
2017-05-14T03:14:15.747Z,957.27
2017-05-14T03:15:10.593Z,957.28
2017-05-14T03:16:15.687Z,957.31
2017-05-14T03:17:12.423Z,957.30
2017-05-14T03:18:15.320Z,957.31
2017-05-14T03:19:15.334Z,957.34
2017-05-14T03:20:12.413Z,957.28
2017-05-14T03:21:15.265Z,957.33
2017-05-14T03:22:16.044Z,957.30
2017-05-14T03:23:15.356Z,957.30
2017-05-14T03:24:15.682Z,957.31
2017-05-14T03:25:15.339Z,957.34
2017-05-14T03:26:16.027Z,957.33
2017-05-14T03:27:15.115Z,957.35
2017-05-14T03:28:14.830Z,957.33
2017-05-14T03:29:14.801Z,957.37
2017-05-14T03:30:15.107Z,957.37
2017-05-14T03:31:15.755Z,957.37
2017-05-14T03:32:15.061Z,957.33
2017-05-14T03:33:15.276Z,957.37
2017-05-14T03:34:15.363Z,957.37
2017-05-14T03:35:15.702Z,957.42
2017-05-14T03:36:15.004Z,957.43
2017-05-14T03:37:16.353Z,957.42
2017-05-14T03:38:15.478Z,957.42
2017-05-14T03:39:15.843Z,957.41
2017-05-14T03:40:15.346Z,957.42
2017-05-14T03:41:15.685Z,957.44
2017-05-14T03:42:14.729Z,957.43
2017-05-14T03:43:15.295Z,957.41
2017-05-14T03:44:15.410Z,957.43
2017-05-14T03:45:15.418Z,957.45
2017-05-14T03:46:15.776Z,957.49
2017-05-14T03:47:15.090Z,957.47
2017-05-14T03:48:14.799Z,957.49
2017-05-14T03:49:15.327Z,957.49
2017-05-14T03:50:15.369Z,957.49
2017-05-14T03:51:15.509Z,957.50
2017-05-14T03:52:15.312Z,957.50
2017-05-14T03:53:15.927Z,957.53
2017-05-14T03:54:16.462Z,957.55
2017-05-14T03:55:15.687Z,957.51
2017-05-14T03:56:10.474Z,957.56
2017-05-14T03:57:15.233Z,957.57
2017-05-14T03:58:15.158Z,957.59
2017-05-14T03:59:15.937Z,957.57
2017-05-14T04:00:15.228Z,957.59
2017-05-14T04:01:15.385Z,957.58
2017-05-14T04:02:15.389Z,957.64
2017-05-14T04:03:16.193Z,957.68
2017-05-14T04:04:13.647Z,957.65
2017-05-14T04:05:15.692Z,957.67
2017-05-14T04:06:16.031Z,957.66
2017-05-14T04:07:15.264Z,957.66
2017-05-14T04:08:17.021Z,957.70
2017-05-14T04:09:10.032Z,957.72
2017-05-14T04:10:14.970Z,957.72
2017-05-14T04:11:15.274Z,957.73
2017-05-14T04:12:15.564Z,957.72
2017-05-14T04:13:15.826Z,957.75
2017-05-14T04:14:14.960Z,957.75
2017-05-14T04:15:15.516Z,957.75
2017-05-14T04:16:11.547Z,957.85
2017-05-14T04:17:15.317Z,957.82
2017-05-14T04:18:11.935Z,957.79
2017-05-14T04:19:15.128Z,957.82
2017-05-14T04:20:13.904Z,957.82
2017-05-14T04:21:14.869Z,957.84
2017-05-14T04:22:14.978Z,957.88
2017-05-14T04:23:14.928Z,957.85
2017-05-14T04:24:14.967Z,957.90
2017-05-14T04:25:16.233Z,957.90
2017-05-14T04:26:15.031Z,957.92
2017-05-14T04:27:14.915Z,957.91
2017-05-14T04:28:15.270Z,957.96
2017-05-14T04:29:15.520Z,957.95
2017-05-14T04:30:15.549Z,957.92
2017-05-14T04:31:17.064Z,957.94
2017-05-14T04:32:15.202Z,957.89
2017-05-14T04:33:15.502Z,957.93
2017-05-14T04:34:15.694Z,957.94
2017-05-14T04:35:15.348Z,957.96
2017-05-14T04:36:15.641Z,958.00
2017-05-14T04:37:14.762Z,958.03
2017-05-14T04:38:15.193Z,958.03
2017-05-14T04:39:16.344Z,957.99
2017-05-14T04:40:16.209Z,958.00
2017-05-14T04:41:16.305Z,958.00
2017-05-14T04:42:12.012Z,958.02
2017-05-14T04:43:16.340Z,957.97
2017-05-14T04:44:16.108Z,957.99
2017-05-14T04:45:14.900Z,957.99
2017-05-14T04:46:15.364Z,957.98
2017-05-14T04:47:16.327Z,957.99
2017-05-14T04:48:15.684Z,958.01
2017-05-14T04:49:14.730Z,957.99
2017-05-14T04:50:15.379Z,957.96
2017-05-14T04:51:15.743Z,957.91
2017-05-14T04:52:14.715Z,957.92
2017-05-14T04:53:15.011Z,957.95
2017-05-14T04:54:15.679Z,957.97
2017-05-14T04:55:15.598Z,957.93
2017-05-14T04:56:15.484Z,957.93
2017-05-14T04:57:15.422Z,957.93
2017-05-14T04:58:15.452Z,957.90
2017-05-14T04:59:15.464Z,957.90
2017-05-14T05:00:16.291Z,957.94
2017-05-14T05:01:15.221Z,957.94
2017-05-14T05:02:11.932Z,957.93
2017-05-14T05:03:15.569Z,957.96
2017-05-14T05:04:16.001Z,957.91
2017-05-14T05:05:16.368Z,957.95
2017-05-14T05:06:16.060Z,957.94
2017-05-14T05:07:16.108Z,957.94
2017-05-14T05:08:15.523Z,957.93
2017-05-14T05:09:16.123Z,957.94
2017-05-14T05:10:15.709Z,957.91
2017-05-14T05:11:14.975Z,957.92
2017-05-14T05:12:15.123Z,957.90
2017-05-14T05:13:15.506Z,957.89
2017-05-14T05:14:15.704Z,957.90
2017-05-14T05:15:15.094Z,957.89
2017-05-14T05:16:15.480Z,957.89
2017-05-14T05:17:15.597Z,957.91
2017-05-14T05:18:15.645Z,957.90
2017-05-14T05:19:15.654Z,957.91
2017-05-14T05:20:14.502Z,957.92
2017-05-14T05:21:13.022Z,957.94
2017-05-14T05:22:15.860Z,957.97
2017-05-14T05:23:11.785Z,957.98
2017-05-14T05:24:16.216Z,957.96
2017-05-14T05:25:16.177Z,957.98
2017-05-14T05:26:15.205Z,957.98
2017-05-14T05:27:15.885Z,958.01
2017-05-14T05:28:11.569Z,958.04
2017-05-14T05:29:14.987Z,958.01
2017-05-14T05:30:15.480Z,958.03
2017-05-14T05:31:12.057Z,958.05
2017-05-14T05:32:15.209Z,958.08
2017-05-14T05:33:15.152Z,958.05
2017-05-14T05:34:15.479Z,958.08
2017-05-14T05:35:16.189Z,958.07
2017-05-14T05:36:15.330Z,958.07
2017-05-14T05:37:15.405Z,958.11
2017-05-14T05:38:15.302Z,958.15
2017-05-14T05:39:15.086Z,958.12
2017-05-14T05:40:15.122Z,958.15
2017-05-14T05:41:15.849Z,958.15
2017-05-14T05:42:14.541Z,958.19
2017-05-14T05:43:15.236Z,958.19
2017-05-14T05:44:18.143Z,958.17
2017-05-14T05:45:16.152Z,958.13
2017-05-14T05:46:15.397Z,958.14
2017-05-14T05:47:15.562Z,958.14
2017-05-14T05:48:15.574Z,958.17
2017-05-14T05:49:16.391Z,958.21
2017-05-14T05:50:15.520Z,958.19
2017-05-14T05:51:15.619Z,958.25
2017-05-14T05:52:15.342Z,958.31
2017-05-14T05:53:11.339Z,958.31
2017-05-14T05:54:14.949Z,958.30
2017-05-14T05:55:15.730Z,958.33
2017-05-14T05:56:15.604Z,958.40
2017-05-14T05:57:15.475Z,958.42
2017-05-14T05:58:12.766Z,958.42
2017-05-14T05:59:15.387Z,958.46
2017-05-14T06:00:12.034Z,958.43
2017-05-14T06:01:15.480Z,958.46
2017-05-14T06:02:16.248Z,958.51
2017-05-14T06:03:15.965Z,958.50
2017-05-14T06:04:16.186Z,958.48
2017-05-14T06:05:15.289Z,958.49
2017-05-14T06:06:16.060Z,958.55
2017-05-14T06:07:12.084Z,958.49
2017-05-14T06:08:11.784Z,958.52
2017-05-14T06:09:15.140Z,958.44
2017-05-14T06:10:15.362Z,958.55
2017-05-14T06:11:15.556Z,958.54
2017-05-14T06:12:15.527Z,958.51
2017-05-14T06:13:16.088Z,958.53
2017-05-14T06:14:11.747Z,958.53
2017-05-14T06:15:15.609Z,958.52
2017-05-14T06:16:13.254Z,958.51
2017-05-14T06:17:15.309Z,958.55
2017-05-14T06:18:15.485Z,958.56
2017-05-14T06:19:15.612Z,958.56
2017-05-14T06:20:15.792Z,958.57
2017-05-14T06:21:14.869Z,958.57
2017-05-14T06:22:15.251Z,958.55
2017-05-14T06:23:15.341Z,958.60
2017-05-14T06:24:15.401Z,958.60
2017-05-14T06:25:16.714Z,958.63
2017-05-14T06:26:15.104Z,958.62
2017-05-14T06:27:15.656Z,958.63
2017-05-14T06:28:20.583Z,958.66
2017-05-14T06:29:15.540Z,958.63
2017-05-14T06:30:16.276Z,958.68
2017-05-14T06:31:15.135Z,958.66
2017-05-14T06:32:11.923Z,958.69
2017-05-14T06:33:14.875Z,958.64
2017-05-14T06:34:15.064Z,958.69
2017-05-14T06:35:15.582Z,958.70
2017-05-14T06:36:15.551Z,958.72
2017-05-14T06:37:16.659Z,958.75
2017-05-14T06:38:15.237Z,958.75
2017-05-14T06:39:15.419Z,958.78
2017-05-14T06:40:12.133Z,958.81
2017-05-14T06:41:15.358Z,958.81
2017-05-14T06:42:15.873Z,958.84
2017-05-14T06:43:16.312Z,958.89
2017-05-14T06:44:15.913Z,958.89
2017-05-14T06:45:10.956Z,958.89
2017-05-14T06:46:13.014Z,958.87
2017-05-14T06:47:15.147Z,958.89
2017-05-14T06:48:15.772Z,958.88
2017-05-14T06:49:15.014Z,958.92
2017-05-14T06:50:15.996Z,958.96
2017-05-14T06:51:16.678Z,958.94
2017-05-14T06:52:15.365Z,958.93
2017-05-14T06:53:11.718Z,958.94
2017-05-14T06:54:16.322Z,958.91
2017-05-14T06:55:15.962Z,958.93
2017-05-14T06:56:15.353Z,958.96
2017-05-14T06:57:15.280Z,958.94
2017-05-14T06:58:15.442Z,958.96
2017-05-14T06:59:11.287Z,958.97
2017-05-14T07:00:14.727Z,958.99
2017-05-14T07:01:16.277Z,959.01
2017-05-14T07:02:15.509Z,959.00
2017-05-14T07:03:16.978Z,959.02
2017-05-14T07:04:15.483Z,958.99
2017-05-14T07:05:12.654Z,959.00
2017-05-14T07:06:14.666Z,959.00
2017-05-14T07:07:15.573Z,959.02
2017-05-14T07:08:16.589Z,959.03
2017-05-14T07:09:15.682Z,959.01
2017-05-14T07:10:14.949Z,959.00
2017-05-14T07:11:12.420Z,959.03
2017-05-14T07:12:15.226Z,959.03
2017-05-14T07:13:15.861Z,959.00
2017-05-14T07:14:18.078Z,959.06
2017-05-14T07:15:13.848Z,959.06
2017-05-14T07:16:15.394Z,959.06
2017-05-14T07:17:16.776Z,959.04
2017-05-14T07:18:15.083Z,959.12
2017-05-14T07:19:16.336Z,959.10
2017-05-14T07:20:15.380Z,959.11
2017-05-14T07:21:16.319Z,959.12
2017-05-14T07:22:16.022Z,959.16
2017-05-14T07:23:15.621Z,959.18
2017-05-14T07:24:12.401Z,959.18
2017-05-14T07:25:15.877Z,959.17
2017-05-14T07:26:15.485Z,959.16
2017-05-14T07:27:15.420Z,959.16
2017-05-14T07:28:15.540Z,959.17
2017-05-14T07:29:12.450Z,959.20
2017-05-14T07:30:14.482Z,959.20
2017-05-14T07:31:15.892Z,959.21
2017-05-14T07:32:11.381Z,959.23
2017-05-14T07:33:15.695Z,959.23
2017-05-14T07:34:15.921Z,959.22
2017-05-14T07:35:15.055Z,959.26
2017-05-14T07:36:16.795Z,959.31
2017-05-14T07:37:12.926Z,959.27
2017-05-14T07:38:14.073Z,959.32
2017-05-14T07:39:13.052Z,959.29
2017-05-14T07:40:15.774Z,959.32
2017-05-14T07:41:12.450Z,959.31
2017-05-14T07:42:14.996Z,959.38
2017-05-14T07:43:14.876Z,959.32
2017-05-14T07:44:15.752Z,959.34
2017-05-14T07:45:15.088Z,959.32
2017-05-14T07:46:15.426Z,959.32
2017-05-14T07:47:15.813Z,959.29
2017-05-14T07:48:14.712Z,959.30
2017-05-14T07:49:15.565Z,959.33
2017-05-14T07:50:15.587Z,959.33
2017-05-14T07:51:16.048Z,959.33
2017-05-14T07:52:15.363Z,959.32
2017-05-14T07:53:15.720Z,959.31
2017-05-14T07:54:14.447Z,959.33
2017-05-14T07:55:15.776Z,959.36
2017-05-14T07:56:10.289Z,959.36
2017-05-14T07:57:13.201Z,959.33
2017-05-14T07:58:15.527Z,959.32
2017-05-14T07:59:15.762Z,959.34
2017-05-14T08:00:16.307Z,959.34
2017-05-14T08:01:17.328Z,959.30
2017-05-14T08:02:17.525Z,959.33
2017-05-14T08:03:16.165Z,959.30
2017-05-14T08:04:10.574Z,959.30
2017-05-14T08:05:15.799Z,959.33
2017-05-14T08:06:15.253Z,959.28
2017-05-14T08:07:13.672Z,959.35
2017-05-14T08:08:15.843Z,959.30
2017-05-14T08:09:15.913Z,959.30
2017-05-14T08:10:15.047Z,959.30
2017-05-14T08:11:14.906Z,959.29
2017-05-14T08:12:15.222Z,959.30
2017-05-14T08:13:15.254Z,959.29
2017-05-14T08:14:15.239Z,959.31
2017-05-14T08:15:10.446Z,959.30
2017-05-14T08:16:16.172Z,959.31
2017-05-14T08:17:15.647Z,959.34
2017-05-14T08:18:15.724Z,959.34
2017-05-14T08:19:15.217Z,959.40
2017-05-14T08:20:21.144Z,959.38
2017-05-14T08:21:12.401Z,959.37
2017-05-14T08:22:15.761Z,959.39
2017-05-14T08:23:15.531Z,959.38
2017-05-14T08:24:13.427Z,959.36
2017-05-14T08:25:15.173Z,959.40
2017-05-14T08:26:15.196Z,959.39
2017-05-14T08:27:15.392Z,959.40
2017-05-14T08:28:16.380Z,959.42
2017-05-14T08:29:15.658Z,959.42
2017-05-14T08:30:15.233Z,959.40
2017-05-14T08:31:14.826Z,959.39
2017-05-14T08:32:15.295Z,959.39
2017-05-14T08:33:15.710Z,959.40
2017-05-14T08:34:15.495Z,959.37
2017-05-14T08:35:15.911Z,959.37
2017-05-14T08:36:15.435Z,959.38
2017-05-14T08:37:15.301Z,959.37
2017-05-14T08:38:15.661Z,959.43
2017-05-14T08:39:14.912Z,959.37
2017-05-14T08:40:15.735Z,959.39
2017-05-14T08:41:16.863Z,959.38
2017-05-14T08:42:15.541Z,959.35
2017-05-14T08:43:15.731Z,959.36
2017-05-14T08:44:14.819Z,959.39
2017-05-14T08:45:15.106Z,959.41
2017-05-14T08:46:21.171Z,959.36
2017-05-14T08:47:15.154Z,959.41
2017-05-14T08:48:15.406Z,959.37
2017-05-14T08:49:15.897Z,959.38
2017-05-14T08:50:14.643Z,959.39
2017-05-14T08:51:14.479Z,959.40
2017-05-14T08:52:16.327Z,959.40
2017-05-14T08:53:15.317Z,959.45
2017-05-14T08:54:16.052Z,959.43
2017-05-14T08:55:12.510Z,959.43
2017-05-14T08:56:16.123Z,959.43
2017-05-14T08:57:16.187Z,959.44
2017-05-14T08:58:15.598Z,959.48
2017-05-14T08:59:20.913Z,959.47
2017-05-14T09:00:14.888Z,959.44
2017-05-14T09:01:16.811Z,959.46
2017-05-14T09:02:14.729Z,959.45
2017-05-14T09:03:16.527Z,959.45
2017-05-14T09:04:12.625Z,959.50
2017-05-14T09:05:16.446Z,959.53
2017-05-14T09:06:16.502Z,959.51
2017-05-14T09:07:15.875Z,959.52
2017-05-14T09:08:14.983Z,959.50
2017-05-14T09:09:16.143Z,959.51
2017-05-14T09:10:15.551Z,959.51
2017-05-14T09:11:15.752Z,959.48
2017-05-14T09:12:12.449Z,959.51
2017-05-14T09:13:15.803Z,959.53
2017-05-14T09:14:15.542Z,959.47
2017-05-14T09:15:16.347Z,959.53
2017-05-14T09:16:15.394Z,959.53
2017-05-14T09:17:16.011Z,959.49
2017-05-14T09:18:15.518Z,959.49
2017-05-14T09:19:13.029Z,959.46
2017-05-14T09:20:15.817Z,959.48
2017-05-14T09:21:12.424Z,959.50
2017-05-14T09:22:15.252Z,959.43
2017-05-14T09:23:15.805Z,959.49
2017-05-14T09:24:14.909Z,959.45
2017-05-14T09:25:15.375Z,959.45
2017-05-14T09:26:15.529Z,959.47
2017-05-14T09:27:15.918Z,959.46
2017-05-14T09:28:14.668Z,959.50
2017-05-14T09:29:15.019Z,959.53
2017-05-14T09:30:15.480Z,959.51
2017-05-14T09:31:16.654Z,959.51
2017-05-14T09:32:16.486Z,959.51
2017-05-14T09:33:13.912Z,959.56
2017-05-14T09:34:15.477Z,959.54
2017-05-14T09:35:16.785Z,959.54
2017-05-14T09:36:15.276Z,959.56
2017-05-14T09:37:16.033Z,959.59
2017-05-14T09:38:15.102Z,959.55
2017-05-14T09:39:15.887Z,959.54
2017-05-14T09:40:15.462Z,959.52
2017-05-14T09:41:15.805Z,959.55
2017-05-14T09:42:14.149Z,959.56
2017-05-14T09:43:15.226Z,959.57
2017-05-14T09:44:16.142Z,959.58
2017-05-14T09:45:15.995Z,959.53
2017-05-14T09:46:15.506Z,959.59
2017-05-14T09:47:15.549Z,959.60
2017-05-14T09:48:16.167Z,959.62
2017-05-14T09:49:17.104Z,959.60
2017-05-14T09:50:15.334Z,959.64
2017-05-14T09:51:11.196Z,959.56
2017-05-14T09:52:15.151Z,959.60
2017-05-14T09:53:15.961Z,959.61
2017-05-14T09:54:15.049Z,959.62
2017-05-14T09:55:15.235Z,959.58
2017-05-14T09:56:16.013Z,959.59
2017-05-14T09:57:10.693Z,959.58
2017-05-14T09:58:14.794Z,959.55
2017-05-14T09:59:15.657Z,959.58
2017-05-14T10:00:16.399Z,959.56
2017-05-14T10:01:17.884Z,959.59
2017-05-14T10:02:16.940Z,959.56
2017-05-14T10:03:15.111Z,959.55
2017-05-14T10:04:16.880Z,959.55
2017-05-14T10:05:15.161Z,959.57
2017-05-14T10:06:19.123Z,959.60
2017-05-14T10:07:15.148Z,959.63
2017-05-14T10:08:15.949Z,959.64
2017-05-14T10:09:15.233Z,959.62
2017-05-14T10:10:15.498Z,959.64
2017-05-14T10:11:15.905Z,959.66
2017-05-14T10:12:11.334Z,959.66
2017-05-14T10:13:15.332Z,959.66
2017-05-14T10:14:15.991Z,959.66
2017-05-14T10:15:15.565Z,959.67
2017-05-14T10:16:14.506Z,959.70
2017-05-14T10:17:15.980Z,959.70
2017-05-14T10:18:15.189Z,959.71
2017-05-14T10:19:15.627Z,959.67
2017-05-14T10:20:16.016Z,959.65
2017-05-14T10:21:10.913Z,959.63
2017-05-14T10:22:14.481Z,959.65
2017-05-14T10:23:14.610Z,959.64
2017-05-14T10:24:14.804Z,959.67
2017-05-14T10:25:15.757Z,959.68
2017-05-14T10:26:15.217Z,959.71
2017-05-14T10:27:15.229Z,959.71
2017-05-14T10:28:15.542Z,959.73
2017-05-14T10:29:15.296Z,959.72
2017-05-14T10:30:12.996Z,959.75
2017-05-14T10:31:15.542Z,959.72
2017-05-14T10:32:15.859Z,959.77
2017-05-14T10:33:15.019Z,959.78
2017-05-14T10:34:17.048Z,959.75
2017-05-14T10:35:15.726Z,959.77
2017-05-14T10:36:17.836Z,959.73
2017-05-14T10:37:15.201Z,959.75
2017-05-14T10:38:12.393Z,959.78
2017-05-14T10:39:14.887Z,959.71
2017-05-14T10:40:15.258Z,959.72
2017-05-14T10:41:15.885Z,959.69
2017-05-14T10:42:15.405Z,959.69
2017-05-14T10:43:15.851Z,959.68
2017-05-14T10:44:26.257Z,959.71
2017-05-14T10:45:15.628Z,959.67
2017-05-14T10:46:16.072Z,959.67
2017-05-14T10:47:15.771Z,959.66
2017-05-14T10:48:15.195Z,959.60
2017-05-14T10:49:11.765Z,959.57
2017-05-14T10:50:15.211Z,959.59
2017-05-14T10:51:12.216Z,959.56
2017-05-14T10:52:15.575Z,959.54
2017-05-14T10:53:12.243Z,959.53
2017-05-14T10:54:15.964Z,959.53
2017-05-14T10:55:15.110Z,959.55
2017-05-14T10:56:15.473Z,959.50
2017-05-14T10:57:15.005Z,959.48
2017-05-14T10:58:15.403Z,959.56
2017-05-14T10:59:15.409Z,959.52
2017-05-14T11:00:15.674Z,959.51
2017-05-14T11:01:16.384Z,959.52
2017-05-14T11:02:16.320Z,959.51
2017-05-14T11:03:16.669Z,959.50
2017-05-14T11:04:14.437Z,959.50
2017-05-14T11:05:11.716Z,959.47
2017-05-14T11:06:15.014Z,959.43
2017-05-14T11:07:11.393Z,959.45
2017-05-14T11:08:15.803Z,959.46
2017-05-14T11:09:16.175Z,959.43
2017-05-14T11:10:15.744Z,959.47
2017-05-14T11:11:14.671Z,959.47
2017-05-14T11:12:09.834Z,959.45
2017-05-14T11:13:15.894Z,959.45
2017-05-14T11:14:15.487Z,959.42
2017-05-14T11:15:16.407Z,959.49
2017-05-14T11:16:15.587Z,959.47
2017-05-14T11:17:16.949Z,959.46
2017-05-14T11:18:15.566Z,959.46
2017-05-14T11:19:16.037Z,959.49
2017-05-14T11:20:14.897Z,959.46
2017-05-14T11:21:15.750Z,959.48
2017-05-14T11:22:15.408Z,959.45
2017-05-14T11:23:15.773Z,959.51
2017-05-14T11:24:15.283Z,959.48
2017-05-14T11:25:11.109Z,959.47
2017-05-14T11:26:15.162Z,959.44
2017-05-14T11:27:15.854Z,959.46
2017-05-14T11:28:15.556Z,959.46
2017-05-14T11:29:11.935Z,959.41
2017-05-14T11:30:15.803Z,959.41
2017-05-14T11:31:16.044Z,959.41
2017-05-14T11:32:15.208Z,959.39
2017-05-14T11:33:15.567Z,959.40
2017-05-14T11:34:16.245Z,959.40
2017-05-14T11:35:15.764Z,959.38
2017-05-14T11:36:15.375Z,959.37
2017-05-14T11:37:15.796Z,959.32
2017-05-14T11:38:15.372Z,959.34
2017-05-14T11:39:15.945Z,959.32
2017-05-14T11:40:15.798Z,959.36
2017-05-14T11:41:15.840Z,959.33
2017-05-14T11:42:15.973Z,959.39
2017-05-14T11:43:13.227Z,959.44
2017-05-14T11:44:15.077Z,959.46
2017-05-14T11:45:10.147Z,959.44
2017-05-14T11:46:15.307Z,959.42
2017-05-14T11:47:17.397Z,959.43
2017-05-14T11:48:15.433Z,959.45
2017-05-14T11:49:17.464Z,959.44
2017-05-14T11:50:15.191Z,959.43
2017-05-14T11:51:15.545Z,959.48
2017-05-14T11:52:15.211Z,959.46
2017-05-14T11:53:15.387Z,959.42
2017-05-14T11:54:12.973Z,959.41
2017-05-14T11:55:15.738Z,959.48
2017-05-14T11:56:15.509Z,959.38
2017-05-14T11:57:16.097Z,959.43
2017-05-14T11:58:11.347Z,959.38
2017-05-14T11:59:15.541Z,959.38
2017-05-14T12:00:16.499Z,959.46
2017-05-14T12:01:15.517Z,959.42
2017-05-14T12:02:16.861Z,959.45
2017-05-14T12:03:15.238Z,959.45
2017-05-14T12:04:17.302Z,959.46
2017-05-14T12:05:15.764Z,959.49
2017-05-14T12:06:15.277Z,959.52
2017-05-14T12:07:15.608Z,959.55
2017-05-14T12:08:15.931Z,959.55
2017-05-14T12:09:15.209Z,959.56
2017-05-14T12:10:15.899Z,959.61
2017-05-14T12:11:14.639Z,959.61
2017-05-14T12:12:15.079Z,959.65
2017-05-14T12:13:16.152Z,959.67
2017-05-14T12:14:10.255Z,959.67
2017-05-14T12:15:15.534Z,959.66
2017-05-14T12:16:15.485Z,959.67
2017-05-14T12:17:15.727Z,959.64
2017-05-14T12:18:12.328Z,959.66
2017-05-14T12:19:15.488Z,959.63
2017-05-14T12:20:16.056Z,959.60
2017-05-14T12:21:14.785Z,959.54
2017-05-14T12:22:14.874Z,959.55
2017-05-14T12:23:15.229Z,959.55
2017-05-14T12:24:15.888Z,959.53
2017-05-14T12:25:15.537Z,959.49
2017-05-14T12:26:15.813Z,959.49
2017-05-14T12:27:14.579Z,959.52
2017-05-14T12:28:15.564Z,959.52